Time;durP1;ratioP1;P1;durP2;ratioP2;P2;SDS_P1;SDS_P2;PMS_P1;PMS_P2;Temp;Humidity;BMP_temperature;BMP_pressure;BME280_temperature;BME280_humidity;BME280_pressure;Samples;Min_cycle;Max_cycle;Signal;HPM_P1;HPM_P2
2022/08/29 00:01:10;;;;;;;5.32;1.55;;;15.20;99.90;;;14.44;100.00;98023.81;4984519;28;20058;-68
2022/08/29 00:03:38;;;;;;;5.88;1.70;;;15.20;99.90;;;14.28;100.00;98030.75;4982366;28;20457;-68
2022/08/29 00:06:07;;;;;;;8.52;1.48;;;15.10;99.90;;;14.32;100.00;98028.81;5002514;28;20174;-68
2022/08/29 00:08:33;;;;;;;7.15;1.52;;;15.10;99.90;;;14.38;100.00;98024.13;4980283;28;20054;-67
2022/08/29 00:11:01;;;;;;;4.88;1.50;;;15.10;99.90;;;14.52;100.00;98014.72;4980393;28;20189;-67
2022/08/29 00:13:28;;;;;;;4.22;1.33;;;15.10;99.90;;;14.53;100.00;98001.59;4980946;28;20142;-67
2022/08/29 00:15:58;;;;;;;8.80;2.00;;;15.20;99.90;;;14.81;100.00;97987.97;4981916;28;20129;-68
2022/08/29 00:18:25;;;;;;;8.63;1.65;;;15.30;99.90;;;14.80;100.00;97977.56;4979998;28;20289;-67
2022/08/29 00:20:52;;;;;;;5.50;1.52;;;15.40;99.90;;;14.82;100.00;97973.13;4981678;28;20080;-68
2022/08/29 00:23:20;;;;;;;4.40;1.40;;;15.40;99.90;;;14.92;100.00;97966.47;4979439;28;20516;-66
2022/08/29 00:25:47;;;;;;;5.90;1.55;;;15.50;99.90;;;14.98;100.00;97947.81;5000087;28;20121;-67
2022/08/29 00:28:14;;;;;;;7.18;1.77;;;15.60;99.90;;;15.00;100.00;97953.81;4981085;28;20141;-68
2022/08/29 00:30:43;;;;;;;7.68;1.55;;;15.60;99.90;;;14.96;100.00;97952.31;5002096;28;20058;-68
2022/08/29 00:33:10;;;;;;;6.57;1.30;;;15.60;99.90;;;15.05;100.00;97953.56;4980916;28;20244;-67
2022/08/29 00:35:40;;;;;;;4.45;1.30;;;15.70;99.90;;;15.02;100.00;97951.97;4981027;28;20062;-68
2022/08/29 00:38:10;;;;;;;5.88;1.63;;;15.70;99.90;;;15.05;100.00;97954.44;4984261;28;20418;-67
2022/08/29 00:40:55;;;;;;;7.93;1.40;;;15.70;99.90;;;14.98;100.00;97960.91;4979301;28;20055;-67
2022/08/29 00:43:30;;;;;;;6.20;1.60;;;15.70;99.90;;;14.97;100.00;97955.78;4986418;28;20054;-67
2022/08/29 00:46:31;;;;;;;6.25;1.50;;;15.70;99.90;;;14.97;100.00;97959.22;4980669;28;20198;-68
2022/08/29 00:49:06;;;;;;;11.43;1.70;;;15.80;99.90;;;14.97;100.00;97956.59;5001214;28;20046;-68
2022/08/29 00:51:33;;;;;;;8.57;1.63;;;15.70;99.90;;;15.01;100.00;97959.91;4981050;28;20157;-68
2022/08/29 00:54:08;;;;;;;10.10;1.83;;;15.70;99.90;;;14.90;100.00;97964.88;4980263;28;20047;-67
2022/08/29 00:56:37;;;;;;;6.25;1.65;;;15.70;99.90;;;14.85;100.00;97970.34;4985912;28;20395;-68
2022/08/29 00:59:17;;;;;;;7.03;1.30;;;15.60;99.90;;;14.85;100.00;97976.41;4984878;28;20125;-67
2022/08/29 01:01:45;;;;;;;5.57;1.45;;;15.60;99.90;;;14.90;100.00;97968.34;4981883;28;20137;-67
2022/08/29 01:04:13;;;;;;;7.60;1.80;;;15.60;99.90;;;14.87;100.00;97976.34;4983426;28;20591;-68
2022/08/29 01:06:52;;;;;;;5.95;1.58;;;15.60;99.90;;;14.83;100.00;97982.66;4983012;28;20363;-67
2022/08/29 01:09:19;;;;;;;4.00;1.38;;;15.60;99.90;;;14.91;100.00;97975.22;4981056;28;20046;-66
2022/08/29 01:14:33;;;;;;;6.50;1.60;;;15.60;99.90;;;14.64;100.00;97990.59;4980504;28;20819;-68
2022/08/29 01:17:07;;;;;;;10.55;1.65;;;15.60;99.90;;;14.64;100.00;97998.44;4978386;28;20058;-68
2022/08/29 01:19:49;;;;;;;7.75;1.83;;;15.50;99.90;;;14.61;100.00;97996.84;5001633;28;20568;-67
2022/08/29 01:22:39;;;;;;;8.68;1.85;;;15.50;99.90;;;14.46;100.00;98005.47;4985132;28;20141;-67
2022/08/29 01:25:18;;;;;;;6.72;1.20;;;15.40;99.90;;;14.56;100.00;97998.00;4982190;28;20057;-68
2022/08/29 01:27:54;;;;;;;5.75;1.50;;;15.40;99.90;;;14.60;100.00;97992.56;4981747;28;20090;-68
2022/08/29 01:30:21;;;;;;;6.85;1.63;;;15.30;99.90;;;14.58;100.00;97996.16;4984687;28;20518;-67
2022/08/29 01:32:48;;;;;;;7.20;1.30;;;15.30;99.90;;;14.55;100.00;97999.78;4999218;28;20165;-68
2022/08/29 01:35:15;;;;;;;4.95;1.50;;;15.30;99.90;;;14.53;100.00;98003.34;4985482;28;20569;-68
2022/08/29 01:37:43;;;;;;;5.50;1.30;;;15.30;99.90;;;14.50;100.00;97995.69;4987177;28;20056;-67
2022/08/29 01:40:13;;;;;;;10.02;1.80;;;15.30;99.90;;;14.48;100.00;98000.13;4987355;28;20141;-67
2022/08/29 01:42:40;;;;;;;8.18;1.83;;;15.20;99.90;;;14.42;100.00;98002.16;4988139;28;20046;-68
2022/08/29 01:45:08;;;;;;;9.57;1.90;;;15.20;99.90;;;14.47;100.00;98006.28;4987660;28;20086;-68
2022/08/29 01:47:38;;;;;;;5.78;1.63;;;15.20;99.90;;;14.38;100.00;98007.59;4988263;28;20099;-67
2022/08/29 01:50:13;;;;;;;7.30;1.30;;;15.10;99.90;;;14.27;100.00;98015.13;4988255;28;20505;-68
2022/08/29 01:52:41;;;;;;;5.03;1.27;;;15.00;99.90;;;14.19;100.00;98034.66;5003977;28;20093;-67
2022/08/29 01:55:09;;;;;;;7.80;1.60;;;15.00;99.90;;;14.04;100.00;98043.22;4987075;28;20093;-68
2022/08/29 01:57:38;;;;;;;7.13;1.38;;;14.90;99.90;;;13.94;100.00;98055.06;4986267;28;20148;-68
2022/08/29 02:00:09;;;;;;;6.22;1.30;;;14.80;99.90;;;14.02;100.00;98058.13;4987690;28;20058;-67
2022/08/29 02:02:37;;;;;;;3.63;1.42;;;14.70;99.90;;;13.92;100.00;98060.34;4987205;28;20086;-67
2022/08/29 02:05:06;;;;;;;6.30;1.55;;;14.70;99.90;;;13.89;100.00;98072.69;4982780;28;20058;-67
2022/08/29 02:07:33;;;;;;;6.45;1.80;;;14.70;99.90;;;13.80;100.00;98079.22;4981997;28;20583;-67
2022/08/29 02:10:00;;;;;;;4.80;1.60;;;14.60;99.90;;;13.79;100.00;98078.34;4981718;28;20054;-68
2022/08/29 02:12:28;;;;;;;5.00;1.40;;;14.50;99.90;;;13.88;100.00;98066.63;4983423;28;20197;-68
2022/08/29 02:14:55;;;;;;;5.53;1.40;;;14.60;99.90;;;13.87;100.00;98064.94;4983867;28;20134;-67
2022/08/29 02:17:23;;;;;;;6.85;1.52;;;14.60;99.90;;;13.52;100.00;98074.41;4986969;28;20058;-68
2022/08/29 02:19:50;;;;;;;6.00;1.30;;;14.40;99.90;;;13.49;100.00;98087.63;4985986;28;20058;-68
2022/08/29 02:22:17;;;;;;;6.65;1.45;;;14.30;99.90;;;13.42;100.00;98100.09;4985072;28;20050;-67
2022/08/29 02:24:44;;;;;;;6.43;1.33;;;14.30;99.90;;;13.46;100.00;98103.41;4984771;28;20517;-68
2022/08/29 02:27:11;;;;;;;7.28;1.55;;;14.30;99.90;;;13.44;100.00;98105.25;4984647;28;20150;-67
2022/08/29 02:29:38;;;;;;;6.93;1.70;;;14.20;99.90;;;13.36;100.00;98109.06;4985361;28;20101;-68
2022/08/29 02:32:10;;;;;;;8.70;1.85;;;14.20;99.90;;;13.40;100.00;98104.53;4985975;28;20055;-67
2022/08/29 02:34:38;;;;;;;6.20;1.73;;;;;;;13.42;100.00;98104.47;4984397;28;20065;-67
2022/08/29 02:37:10;;;;;;;10.07;1.45;;;14.20;99.90;;;13.33;100.00;98105.72;4984163;28;20545;-68
2022/08/29 02:39:38;;;;;;;6.32;1.63;;;14.20;99.90;;;13.25;100.00;98113.88;4983562;28;20058;-67
2022/08/29 02:42:05;;;;;;;5.93;1.70;;;14.10;99.90;;;13.15;100.00;98113.41;4988068;28;20108;-68
2022/08/29 02:44:32;;;;;;;7.18;1.38;;;14.00;99.90;;;12.87;100.00;98120.75;4983208;28;20057;-67
2022/08/29 02:46:59;;;;;;;4.47;1.23;;;13.90;99.90;;;12.86;100.00;98135.53;4981171;28;20047;-68
2022/08/29 02:49:26;;;;;;;6.40;1.40;;;13.70;99.90;;;12.79;100.00;98143.69;4985083;28;20232;-67
2022/08/29 02:51:53;;;;;;;4.43;1.58;;;13.70;99.90;;;12.75;100.00;98151.63;4980735;28;20170;-67
2022/08/29 02:54:20;;;;;;;8.82;1.60;;;13.50;99.90;;;12.71;100.00;98157.88;4982087;28;20263;-67
2022/08/29 02:56:47;;;;;;;4.97;1.75;;;13.50;99.90;;;12.73;100.00;98150.84;4983092;28;20064;-68
2022/08/29 02:59:14;;;;;;;10.02;2.20;;;13.50;99.90;;;12.71;100.00;98159.63;4982928;28;20137;-68
2022/08/29 03:01:41;;;;;;;6.10;1.40;;;13.50;99.90;;;12.70;100.00;98161.41;4983174;28;20065;-68
2022/08/29 03:04:08;;;;;;;5.45;1.52;;;13.50;99.90;;;12.68;100.00;98173.63;4982970;28;20061;-68
2022/08/29 03:06:34;;;;;;;8.90;2.03;;;13.50;99.90;;;12.63;100.00;98170.34;4981295;28;20052;-68
2022/08/29 03:09:01;;;;;;;6.78;1.85;;;13.40;99.90;;;12.62;100.00;98170.44;4982630;28;20053;-68
2022/08/29 03:11:29;;;;;;;5.28;1.60;;;13.40;99.90;;;12.53;100.00;98177.72;5003836;28;20133;-67
2022/08/29 03:13:56;;;;;;;7.15;1.55;;;13.40;99.90;;;12.57;100.00;98173.25;5003221;28;20078;-68
2022/08/29 03:16:25;;;;;;;7.35;1.40;;;13.40;99.90;;;12.58;100.00;98177.53;4981185;28;20164;-68
2022/08/29 03:18:53;;;;;;;5.13;1.52;;;13.40;99.90;;;12.53;100.00;98172.50;4982214;28;20058;-68
2022/08/29 03:21:24;;;;;;;6.82;1.38;;;13.40;99.90;;;12.58;100.00;98164.50;4981314;28;20046;-67
2022/08/29 03:23:52;;;;;;;6.20;1.35;;;13.40;99.90;;;12.49;100.00;98157.91;4982182;28;20389;-67
2022/08/29 03:26:19;;;;;;;7.53;1.80;;;13.40;99.90;;;12.59;100.00;98153.19;4984451;28;20130;-68
2022/08/29 03:28:47;;;;;;;7.32;1.83;;;13.40;99.90;;;12.57;100.00;98147.19;4984886;28;20106;-67
2022/08/29 03:31:14;;;;;;;5.80;1.70;;;13.40;99.90;;;12.63;100.00;98148.69;4985074;28;20077;-67
2022/08/29 03:33:42;;;;;;;9.25;2.15;;;13.40;99.90;;;12.68;100.00;98141.50;4983597;28;20126;-68
2022/08/29 03:36:10;;;;;;;5.32;1.75;;;13.40;99.90;;;12.69;100.00;98133.66;4985258;28;20714;-67
2022/08/29 03:38:42;;;;;;;4.57;1.65;;;13.40;99.90;;;12.71;100.00;98125.78;4985617;28;20564;-68
2022/08/29 03:41:10;;;;;;;3.33;1.45;;;13.50;99.90;;;12.72;100.00;98119.66;5003334;28;20050;-66
2022/08/29 03:43:37;;;;;;;8.35;1.58;;;13.40;99.90;;;12.68;100.00;98118.06;4986231;28;20116;-68
2022/08/29 03:46:04;;;;;;;6.18;1.52;;;13.40;99.90;;;12.69;100.00;98118.03;4986232;28;20050;-68
2022/08/29 03:48:32;;;;;;;6.07;1.40;;;13.40;99.90;;;12.56;100.00;98120.28;4984214;28;20054;-68
2022/08/29 03:50:59;;;;;;;7.82;1.55;;;13.50;99.90;;;12.61;100.00;98122.69;4983310;28;20061;-67
2022/08/29 03:53:26;;;;;;;6.93;1.77;;;13.50;99.90;;;12.55;100.00;98121.22;4983167;28;20141;-68
2022/08/29 03:55:56;;;;;;;6.15;1.50;;;13.50;99.90;;;12.72;100.00;98111.81;4987476;28;20514;-68
2022/08/29 03:58:23;;;;;;;6.32;1.52;;;13.50;99.90;;;12.73;100.00;98113.53;4985104;28;20089;-68
2022/08/29 04:00:50;;;;;;;5.07;1.35;;;13.50;99.90;;;12.73;100.00;98106.56;4983155;28;20054;-68
2022/08/29 04:03:19;;;;;;;9.00;1.60;;;13.40;99.90;;;12.72;100.00;98111.81;4983505;28;20171;-68
2022/08/29 04:05:51;;;;;;;7.13;1.50;;;13.40;99.90;;;12.67;100.00;98112.03;4984830;28;20138;-68
2022/08/29 04:08:21;;;;;;;5.72;1.67;;;13.40;99.90;;;12.68;100.00;98112.88;4982860;28;20066;-68
2022/08/29 04:10:48;;;;;;;6.32;1.90;;;13.40;99.90;;;12.63;100.00;98117.44;4980600;28;20050;-68
2022/08/29 04:13:15;;;;;;;6.63;1.48;;;13.50;99.90;;;12.63;100.00;98117.44;4981551;28;20046;-68
2022/08/29 04:15:42;;;;;;;5.47;1.10;;;13.40;99.90;;;12.72;100.00;98112.66;5001287;28;20054;-68
2022/08/29 04:18:10;;;;;;;3.75;1.30;;;13.50;99.90;;;12.80;100.00;98109.75;4977225;28;20054;-67
2022/08/29 04:20:43;;;;;;;5.63;1.45;;;13.50;99.90;;;12.77;100.00;98105.53;4987361;28;20061;-68
2022/08/29 04:23:13;;;;;;;7.03;1.63;;;13.50;99.90;;;12.85;100.00;98104.34;4985509;28;20081;-67
2022/08/29 04:25:42;;;;;;;6.05;1.33;;;13.60;99.90;;;12.94;100.00;98104.78;4984525;28;20492;-68
2022/08/29 04:28:12;;;;;;;8.02;2.08;;;13.70;99.90;;;13.07;100.00;98096.41;4985303;28;20072;-67
2022/08/29 04:30:47;;;;;;;5.18;1.40;;;13.80;99.90;;;13.15;100.00;98078.69;4983607;28;20078;-68
2022/08/29 04:33:20;;;;;;;3.72;1.00;;;14.00;99.90;;;13.24;100.00;98078.28;4984601;28;20057;-68
2022/08/29 04:35:50;;;;;;;7.43;1.40;;;14.00;99.90;;;13.28;100.00;98079.03;4999962;28;20073;-67
2022/08/29 04:38:17;;;;;;;6.28;1.45;;;14.10;99.90;;;13.38;100.00;98069.84;4983663;28;20118;-67
2022/08/29 04:40:45;;;;;;;7.95;1.73;;;14.20;99.90;;;13.44;100.00;98072.19;4986407;28;20540;-68
2022/08/29 04:43:12;;;;;;;3.92;1.45;;;14.30;99.90;;;13.33;100.00;98064.84;4984005;28;20111;-68
2022/08/29 04:45:41;;;;;;;5.28;1.60;;;14.40;99.90;;;13.43;100.00;98067.88;4984473;28;20138;-67
2022/08/29 04:48:09;;;;;;;8.75;1.65;;;14.40;99.90;;;13.46;100.00;98059.09;4980246;28;20558;-68
2022/08/29 04:50:36;;;;;;;4.80;1.33;;;14.40;99.90;;;13.61;100.00;98063.56;4980110;28;20225;-67
2022/08/29 04:53:03;;;;;;;3.50;1.20;;;14.40;99.90;;;13.69;100.00;98063.22;4979518;28;20468;-67
2022/08/29 04:55:31;;;;;;;6.88;1.60;;;14.40;99.90;;;13.56;100.00;98061.16;4980420;28;20092;-68
2022/08/29 04:57:59;;;;;;;6.05;1.42;;;14.50;99.90;;;13.68;100.00;98059.72;5000455;28;20046;-68
2022/08/29 05:00:28;;;;;;;7.78;1.88;;;14.50;99.90;;;13.64;100.00;98059.97;4982278;28;20054;-68
2022/08/29 05:02:56;;;;;;;8.98;1.55;;;14.60;99.90;;;13.71;100.00;98051.78;4980220;28;20939;-67
2022/08/29 05:05:24;;;;;;;5.95;1.30;;;14.60;99.90;;;13.83;100.00;98052.13;5000422;28;20134;-67
2022/08/29 05:07:51;;;;;;;6.95;1.88;;;14.60;99.90;;;13.75;100.00;98053.34;5000696;28;20059;-67
2022/08/29 05:10:20;;;;;;;5.32;1.45;;;14.70;99.90;;;13.88;100.00;98045.75;4981977;28;20619;-68
2022/08/29 05:12:47;;;;;;;8.93;1.38;;;14.70;99.90;;;13.77;100.00;98050.63;4985791;28;20542;-68
2022/08/29 05:15:15;;;;;;;6.05;1.40;;;14.70;99.90;;;13.74;100.00;98051.63;4984950;28;20145;-67
2022/08/29 05:17:42;;;;;;;4.57;1.23;;;14.80;99.90;;;13.87;100.00;98049.28;5004148;28;20492;-68
2022/08/29 05:20:10;;;;;;;6.50;1.60;;;14.70;99.90;;;13.88;100.00;98042.28;4981734;28;20144;-68
2022/08/29 05:22:39;;;;;;;5.18;1.23;;;14.80;99.90;;;13.94;100.00;98045.47;4988317;28;20512;-68
2022/08/29 05:25:08;;;;;;;5.07;1.40;;;14.80;99.90;;;13.97;100.00;98045.28;4989085;28;20114;-67
2022/08/29 05:27:35;;;;;;;7.68;1.52;;;14.80;99.90;;;14.00;100.00;98052.13;5004587;28;20129;-68
2022/08/29 05:30:04;;;;;;;4.82;1.52;;;14.80;99.90;;;13.98;100.00;98047.00;4985446;28;20213;-68
2022/08/29 05:32:31;;;;;;;8.88;1.65;;;14.80;99.90;;;13.90;100.00;98056.97;4986507;28;20058;-68
2022/08/29 05:34:58;;;;;;;8.35;1.60;;;14.90;99.90;;;14.03;100.00;98062.44;4987122;28;20069;-68
2022/08/29 05:37:25;;;;;;;6.90;1.38;;;14.90;99.90;;;13.97;100.00;98055.72;4986830;28;20054;-67
2022/08/29 05:39:53;;;;;;;5.32;1.20;;;15.00;99.90;;;13.87;100.00;98066.72;4989519;28;20133;-68
2022/08/29 05:42:21;;;;;;;7.53;1.52;;;15.00;99.90;;;13.97;100.00;98060.94;4990400;28;20069;-67
2022/08/29 05:44:49;;;;;;;4.70;1.30;;;15.00;99.90;;;13.93;100.00;98069.00;4988343;28;20345;-68
2022/08/29 05:47:18;;;;;;;9.35;1.83;;;15.00;99.90;;;14.06;100.00;98061.44;4989423;28;20439;-68
2022/08/29 05:49:46;;;;;;;6.47;1.73;;;15.10;99.90;;;14.09;100.00;98069.94;5001989;28;20496;-68
2022/08/29 05:52:17;;;;;;;6.53;1.40;;;15.10;99.90;;;14.20;100.00;98070.25;4985271;28;20097;-68
2022/08/29 05:54:45;;;;;;;8.10;1.63;;;15.20;99.90;;;14.19;100.00;98075.59;4988548;28;20061;-68
2022/08/29 05:57:17;;;;;;;4.18;1.30;;;15.30;99.90;;;14.19;100.00;98079.03;4988343;28;20081;-68
2022/08/29 05:59:47;;;;;;;5.38;1.55;;;15.40;99.90;;;14.38;100.00;98073.72;4988303;28;20058;-67
2022/08/29 06:02:15;;;;;;;6.13;1.48;;;15.40;99.90;;;14.41;100.00;98064.91;4985462;28;20129;-68
2022/08/29 06:04:42;;;;;;;5.55;1.20;;;15.40;99.90;;;14.60;100.00;98065.69;4988508;28;20046;-68
2022/08/29 06:07:10;;;;;;;4.25;1.20;;;15.60;99.90;;;14.67;100.00;98066.22;4986700;28;20137;-67
2022/08/29 06:09:39;;;;;;;5.88;1.08;;;15.70;99.90;;;14.66;100.00;98058.47;4987791;28;20412;-67
2022/08/29 06:12:08;;;;;;;8.45;1.33;;;15.90;99.90;;;14.78;100.00;98053.47;4988097;28;20774;-68
2022/08/29 06:14:35;;;;;;;8.60;1.90;;;16.00;99.90;;;14.82;100.00;98052.38;4988049;28;20054;-67
2022/08/29 06:17:04;;;;;;;5.22;1.20;;;16.10;99.90;;;15.05;100.00;98051.16;4982810;28;20466;-67
2022/08/29 06:19:34;;;;;;;5.43;1.42;;;16.20;99.90;;;15.20;100.00;98051.25;5001812;28;20129;-68
2022/08/29 06:22:02;;;;;;;12.45;2.42;;;16.40;99.90;;;15.29;100.00;98040.31;5001479;28;20097;-67
2022/08/29 06:24:38;;;;;;;7.63;2.00;;;16.40;99.90;;;15.43;100.00;98040.38;4983022;28;20243;-68
2022/08/29 06:27:05;;;;;;;7.22;2.03;;;16.50;99.90;;;15.40;100.00;98030.09;4986019;28;20362;-68
2022/08/29 06:29:32;;;;;;;6.25;1.45;;;16.60;99.90;;;15.52;100.00;98027.75;4983000;28;20074;-67
2022/08/29 06:32:10;;;;;;;9.68;1.80;;;16.70;99.90;;;15.67;100.00;98019.03;4985549;28;20072;-68
2022/08/29 06:34:38;;;;;;;6.82;1.50;;;16.90;99.90;;;15.64;100.00;98013.97;4983936;28;20145;-67
2022/08/29 06:37:05;;;;;;;10.52;1.75;;;16.90;99.90;;;15.76;100.00;98013.31;4982154;28;20081;-67
2022/08/29 06:39:32;;;;;;;8.48;1.80;;;16.90;99.90;;;15.92;100.00;98021.16;4983812;28;20504;-68
2022/08/29 06:41:59;;;;;;;5.55;1.48;;;17.00;99.90;;;16.12;100.00;98022.59;4982582;28;20054;-68
2022/08/29 06:44:29;;;;;;;5.53;1.35;;;17.30;99.90;;;16.13;100.00;98024.28;4983071;28;20050;-67
2022/08/29 06:46:57;;;;;;;7.85;1.60;;;17.30;99.90;;;16.02;100.00;98018.84;4988682;28;20060;-67
2022/08/29 06:49:26;;;;;;;5.82;1.67;;;17.30;99.90;;;15.91;100.00;98018.59;4987364;28;20504;-67
2022/08/29 06:51:54;;;;;;;7.47;1.83;;;17.10;99.90;;;15.93;100.00;98012.34;4985352;28;20157;-68
2022/08/29 06:54:27;;;;;;;7.80;1.67;;;17.10;99.90;;;15.88;100.00;98014.38;4985518;28;20046;-69
2022/08/29 06:56:56;;;;;;;7.55;1.90;;;17.10;99.90;;;15.77;100.00;98017.63;4986937;28;20072;-68
2022/08/29 06:59:24;;;;;;;4.47;1.65;;;17.00;99.90;;;15.94;100.00;98023.66;4982585;28;20058;-66
2022/08/29 07:01:53;;;;;;;11.35;2.08;;;17.00;99.90;;;15.76;100.00;98025.53;4982741;28;20054;-67
2022/08/29 07:04:21;;;;;;;10.38;2.33;;;17.00;99.90;;;15.85;100.00;98038.09;4984009;28;20054;-67
2022/08/29 07:06:48;;;;;;;5.97;1.77;;;17.00;99.90;;;16.02;100.00;98031.94;4985480;28;20133;-68
2022/08/29 07:09:16;;;;;;;8.80;2.08;;;17.00;99.90;;;16.17;100.00;98024.94;4984645;28;20050;-67
2022/08/29 07:11:43;;;;;;;7.47;1.70;;;17.20;99.90;;;16.33;100.00;98027.50;4986015;28;20086;-67
2022/08/29 07:14:11;;;;;;;5.90;1.60;;;17.20;99.90;;;16.50;100.00;98038.69;4985553;28;20133;-68
2022/08/29 07:16:40;;;;;;;7.70;2.30;;;17.40;99.90;;;16.53;100.00;98021.94;4985899;28;20145;-68
2022/08/29 07:19:09;;;;;;;7.85;1.95;;;17.50;99.90;;;16.81;100.00;98021.16;4984263;28;20580;-67
2022/08/29 07:21:37;;;;;;;11.75;1.80;;;17.80;99.90;;;16.79;100.00;98023.03;4983479;28;20061;-67
2022/08/29 07:24:05;;;;;;;14.80;2.00;;;;;;;17.00;100.00;98006.94;4981792;28;20129;-68
2022/08/29 07:26:40;;;;;;;6.45;1.40;;;18.10;99.90;;;17.22;100.00;98004.66;4983978;28;20070;-68
2022/08/29 07:29:18;;;;;;;6.50;1.50;;;18.30;99.90;;;17.41;100.00;97995.63;4982343;28;20068;-68
2022/08/29 07:31:46;;;;;;;9.30;2.03;;;18.50;99.90;;;17.71;100.00;98004.13;4986600;28;20129;-67
2022/08/29 07:34:14;;;;;;;5.97;1.50;;;18.60;99.90;;;17.82;100.00;98010.53;4984326;28;20058;-68
2022/08/29 07:36:41;;;;;;;7.55;1.60;;;18.70;99.90;;;17.60;100.00;98003.16;4985897;28;20057;-69
2022/08/29 07:39:14;;;;;;;10.35;1.85;;;18.80;99.90;;;17.55;100.00;98001.66;4984711;28;20567;-67
2022/08/29 07:41:43;;;;;;;4.82;1.60;;;18.70;99.90;;;17.91;100.00;97999.41;4987210;28;20054;-68
2022/08/29 07:44:12;;;;;;;4.63;1.27;;;18.80;99.90;;;17.82;100.00;97995.59;5001458;28;20051;-67
2022/08/29 07:46:39;;;;;;;7.20;1.50;;;18.90;99.90;;;18.02;100.00;97990.81;4985518;28;20143;-68
2022/08/29 07:49:06;;;;;;;8.00;1.52;;;19.00;99.90;;;17.77;100.00;97993.25;4984631;28;20058;-67
2022/08/29 07:51:34;;;;;;;7.50;1.50;;;18.90;99.90;;;17.81;100.00;97996.53;4984004;28;20508;-68
2022/08/29 07:54:01;;;;;;;6.45;1.98;;;18.80;99.90;;;17.53;100.00;98000.06;4984849;28;20065;-67
2022/08/29 07:56:38;;;;;;;7.90;1.50;;;18.70;99.90;;;17.67;100.00;97996.56;4984495;28;20049;-67
2022/08/29 07:59:07;;;;;;;6.45;1.73;;;18.70;99.90;;;17.91;100.00;97994.16;4982334;28;20046;-68
2022/08/29 08:01:34;;;;;;;9.48;1.67;;;18.80;99.90;;;18.26;100.00;97993.59;4983421;28;20054;-68
2022/08/29 08:04:01;;;;;;;9.25;1.98;;;19.00;99.90;;;18.36;100.00;97990.25;4986164;28;20139;-67
2022/08/29 08:06:29;;;;;;;12.80;2.00;;;19.30;99.90;;;18.42;100.00;97986.34;4985441;28;20042;-67
2022/08/29 08:08:56;;;;;;;5.93;1.50;;;19.50;99.90;;;18.52;100.00;97981.28;4986754;28;20053;-67
2022/08/29 08:11:26;;;;;;;11.80;1.45;;;19.60;99.90;;;18.59;100.00;97979.97;4986513;28;20056;-67
2022/08/29 08:13:54;;;;;;;7.53;1.25;;;19.60;99.90;;;18.61;100.00;97975.44;4985487;28;20560;-67
2022/08/29 08:16:24;;;;;;;8.00;1.83;;;19.70;99.90;;;18.84;100.00;97979.13;4985435;28;20141;-68
2022/08/29 08:18:52;;;;;;;7.53;1.45;;;19.80;99.90;;;19.01;100.00;97976.13;4984030;28;20089;-69
2022/08/29 08:21:21;;;;;;;7.35;1.42;;;20.10;99.90;;;19.54;100.00;97967.13;4982274;28;20046;-68
2022/08/29 08:23:48;;;;;;;5.72;1.65;;;20.40;99.90;;;19.35;100.00;97968.47;4985271;28;20125;-68
2022/08/29 08:26:16;;;;;;;12.75;1.90;;;20.60;99.90;;;19.29;100.00;97968.91;4980821;28;20061;-68
2022/08/29 08:28:43;;;;;;;6.00;1.70;;;20.70;99.90;;;19.60;100.00;97974.59;4981219;28;20125;-68
2022/08/29 08:31:14;;;;;;;11.38;1.70;;;20.80;99.90;;;19.69;100.00;97971.31;4980623;28;20161;-68
2022/08/29 08:33:43;;;;;;;6.63;1.42;;;20.90;99.90;;;20.21;100.00;97966.59;4980593;28;20058;-68
2022/08/29 08:36:19;;;;;;;8.10;1.65;;;21.10;99.90;;;20.35;100.00;97973.44;4978358;28;20061;-68
2022/08/29 08:38:47;;;;;;;5.82;1.40;;;21.40;99.90;;;20.66;100.00;97962.25;4984937;28;20058;-68
2022/08/29 08:41:48;;;;;;;9.18;1.58;;;21.70;99.90;;;20.91;100.00;97951.56;4983507;28;20141;-68
2022/08/29 08:44:21;;;;;;;7.82;1.60;;;21.90;99.90;;;21.25;100.00;97955.84;4980210;28;20055;-69
2022/08/29 08:46:53;;;;;;;8.65;1.80;;;22.10;99.90;;;21.42;100.00;97966.91;4982330;28;20929;-69
2022/08/29 08:49:34;;;;;;;;;;;22.20;99.90;;;21.74;100.00;97966.09;5004354;28;20439;-70
2022/08/29 08:52:09;;;;;;;6.80;1.45;;;22.40;99.90;;;21.93;100.00;97955.66;4982555;28;19925;-68
2022/08/29 08:54:49;;;;;;;4.93;1.55;;;22.60;99.90;;;21.88;100.00;97955.19;4990194;28;20145;-68
2022/08/29 08:57:17;;;;;;;5.80;1.58;;;22.80;99.90;;;22.72;100.00;97956.03;5003831;28;20223;-68
2022/08/29 08:59:49;;;;;;;5.93;1.50;;;23.00;99.90;;;23.42;100.00;97953.47;4985654;28;20140;-68
2022/08/29 09:02:34;;;;;;;8.50;1.60;;;23.40;99.90;;;23.64;100.00;97943.63;4979858;28;20125;-68
2022/08/29 09:05:23;;;;;;;7.28;1.55;;;23.80;99.90;;;23.26;100.00;97948.69;4983562;28;20384;-68
2022/08/29 09:08:31;;;;;;;8.68;1.90;;;24.00;99.90;;;22.67;100.00;97952.94;4988635;28;20568;-68
2022/08/29 09:11:18;;;;;;;7.15;1.55;;;23.70;99.90;;;23.04;100.00;97941.00;4946281;29;20070;-68
2022/08/29 09:14:27;;;;;;;9.18;1.70;;;23.60;99.90;;;23.21;100.00;97944.81;4989292;28;20137;-68
2022/08/29 09:16:57;;;;;;;15.80;2.00;;;23.60;99.90;;;24.32;100.00;97930.34;4969721;28;20062;-69
2022/08/29 09:19:25;;;;;;;14.63;1.90;;;23.90;99.90;;;24.08;100.00;97934.25;4985667;28;20058;-68
2022/08/29 09:21:58;;;;;;;4.82;1.58;;;23.90;99.90;;;24.30;100.00;97934.94;4988187;28;20062;-68
2022/08/29 09:24:39;;;;;;;4.38;1.60;;;24.20;99.90;;;24.51;100.00;97935.59;4989646;28;20052;-68
2022/08/29 09:27:16;;;;;;;10.30;1.67;;;24.40;99.90;;;25.55;100.00;97940.69;4988590;28;20057;-69
2022/08/29 09:29:44;;;;;;;8.00;1.80;;;25.00;99.80;;;24.94;100.00;97938.66;4988431;28;20675;-68
2022/08/29 09:32:15;;;;;;;7.05;1.52;;;25.10;99.20;;;24.42;100.00;97937.25;4986492;28;20050;-68
2022/08/29 09:34:49;;;;;;;5.35;1.48;;;24.90;98.40;;;24.13;100.00;97941.78;4987246;28;20085;-68
2022/08/29 09:37:34;;;;;;;10.77;2.17;;;24.80;99.10;;;24.40;100.00;97938.38;4987721;28;20133;-69
2022/08/29 09:40:12;;;;;;;4.63;1.50;;;24.80;98.20;;;23.79;100.00;97937.78;4989076;28;20133;-68
2022/08/29 09:43:00;;;;;;;6.90;2.00;;;24.60;98.30;;;24.04;100.00;97937.34;4986795;28;20054;-69
2022/08/29 09:45:27;;;;;;;8.30;1.70;;;24.60;98.30;;;23.63;100.00;97939.28;4986611;28;20050;-68
2022/08/29 09:48:14;;;;;;;7.82;1.90;;;24.40;98.10;;;24.31;100.00;97939.25;4988651;28;20214;-68
2022/08/29 09:50:41;;;;;;;10.07;1.73;;;24.60;98.40;;;23.93;100.00;97935.69;4986099;28;20133;-68
2022/08/29 09:53:08;;;;;;;8.23;1.45;;;24.50;98.10;;;24.00;100.00;97939.47;4986280;28;20050;-68
2022/08/29 09:55:51;;;;;;;7.95;1.60;;;24.60;97.80;;;24.08;100.00;97931.59;4986528;28;20053;-69
2022/08/29 09:58:18;;;;;;;8.38;1.65;;;24.70;97.70;;;24.61;100.00;97933.75;4985149;28;20111;-67
2022/08/29 10:01:02;;;;;;;6.30;1.70;;;24.90;97.50;;;24.50;100.00;97925.97;4985532;28;20440;-67
2022/08/29 10:03:38;;;;;;;4.95;1.70;;;25.00;97.40;;;25.05;100.00;97919.88;4981904;28;20053;-67
2022/08/29 10:06:24;;;;;;;7.43;1.50;;;25.20;96.70;;;25.37;100.00;97921.25;4985774;28;20401;-68
2022/08/29 10:09:10;;;;;;;3.38;1.20;;;25.40;96.60;;;25.24;100.00;97926.91;4998165;28;20055;-69
2022/08/29 10:11:59;;;;;;;8.85;1.98;;;25.70;96.20;;;26.29;100.00;97904.09;4982398;28;20058;-68
2022/08/29 10:15:00;;;;;;;5.88;1.73;;;26.20;96.10;;;25.39;100.00;97921.94;4986264;28;20281;-68
2022/08/29 10:20:55;;;;;;;6.30;1.60;;;26.20;95.10;;;25.75;100.00;97912.16;4988202;28;20054;-68
2022/08/29 10:23:36;;;;;;;6.05;1.38;;;26.20;94.90;;;26.13;100.00;97906.63;4987282;28;20543;-68
2022/08/29 10:26:50;;;;;;;4.85;1.50;;;26.30;94.60;;;25.91;100.00;97899.97;4982598;28;20043;-69
2022/08/29 10:29:38;;;;;;;4.25;1.27;;;26.00;94.40;;;25.86;100.00;97903.06;4985098;28;20138;-69
2022/08/29 10:33:03;;;;;;;5.95;1.38;;;26.30;94.20;;;26.41;100.00;97894.00;4981963;28;20073;-68
2022/08/29 10:35:59;;;;;;;7.43;1.90;;;26.40;94.20;;;26.78;100.00;97891.06;4958057;28;20051;-68